sensor_id;sensor_type;location;lat;lon;timestamp;pressure;altitude;pressure_sealevel;temperature;humidity
55217;BME280;41086;46.736;15.666;2022-12-07T00:01:19;98283.75;;;0.91;100.00
55217;BME280;41086;46.736;15.666;2022-12-07T00:03:47;98267.41;;;0.85;100.00
55217;BME280;41086;46.736;15.666;2022-12-07T00:06:16;98272.66;;;0.84;100.00
55217;BME280;41086;46.736;15.666;2022-12-07T00:08:44;98270.16;;;0.81;100.00
55217;BME280;41086;46.736;15.666;2022-12-07T00:11:21;98257.09;;;0.81;100.00
55217;BME280;41086;46.736;15.666;2022-12-07T00:13:55;98256.38;;;0.77;100.00
55217;BME280;41086;46.736;15.666;2022-12-07T00:16:24;98251.19;;;0.76;100.00
55217;BME280;41086;46.736;15.666;2022-12-07T00:18:52;98261.63;;;0.76;100.00
55217;BME280;41086;46.736;15.666;2022-12-07T00:21:21;98260.97;;;0.69;100.00
55217;BME280;41086;46.736;15.666;2022-12-07T00:23:50;98242.06;;;0.62;100.00
55217;BME280;41086;46.736;15.666;2022-12-07T00:26:22;98243.81;;;0.62;100.00
55217;BME280;41086;46.736;15.666;2022-12-07T00:28:58;98242.81;;;0.66;100.00
55217;BME280;41086;46.736;15.666;2022-12-07T00:31:27;98243.72;;;0.65;100.00
55217;BME280;41086;46.736;15.666;2022-12-07T00:33:56;98248.75;;;0.71;100.00
55217;BME280;41086;46.736;15.666;2022-12-07T00:36:24;98256.47;;;0.74;100.00
55217;BME280;41086;46.736;15.666;2022-12-07T00:38:54;98243.31;;;0.77;100.00
55217;BME280;41086;46.736;15.666;2022-12-07T00:41:23;98244.38;;;0.72;100.00
55217;BME280;41086;46.736;15.666;2022-12-07T00:43:51;98236.84;;;0.62;100.00
55217;BME280;41086;46.736;15.666;2022-12-07T00:46:18;98247.78;;;0.74;100.00
55217;BME280;41086;46.736;15.666;2022-12-07T00:48:46;98250.44;;;0.72;100.00
55217;BME280;41086;46.736;15.666;2022-12-07T00:51:15;98254.00;;;0.70;100.00
55217;BME280;41086;46.736;15.666;2022-12-07T00:53:43;98244.31;;;0.73;100.00
55217;BME280;41086;46.736;15.666;2022-12-07T00:56:18;98245.09;;;0.77;100.00
55217;BME280;41086;46.736;15.666;2022-12-07T00:58:56;98231.78;;;0.58;100.00
55217;BME280;41086;46.736;15.666;2022-12-07T01:01:25;98248.38;;;0.55;100.00
55217;BME280;41086;46.736;15.666;2022-12-07T01:03:52;98252.94;;;0.49;100.00
55217;BME280;41086;46.736;15.666;2022-12-07T01:06:20;98244.44;;;0.43;100.00
55217;BME280;41086;46.736;15.666;2022-12-07T01:08:48;98244.44;;;0.43;100.00
55217;BME280;41086;46.736;15.666;2022-12-07T01:11:17;98255.72;;;0.42;100.00
55217;BME280;41086;46.736;15.666;2022-12-07T01:13:44;98256.44;;;0.48;100.00
55217;BME280;41086;46.736;15.666;2022-12-07T01:16:13;98258.09;;;0.50;100.00
55217;BME280;41086;46.736;15.666;2022-12-07T01:18:40;98254.66;;;0.50;100.00
55217;BME280;41086;46.736;15.666;2022-12-07T01:23:37;98251.19;;;0.49;100.00
55217;BME280;41086;46.736;15.666;2022-12-07T01:26:05;98257.47;;;0.43;100.00
55217;BME280;41086;46.736;15.666;2022-12-07T01:28:32;98250.50;;;0.44;100.00
55217;BME280;41086;46.736;15.666;2022-12-07T01:31:05;98248.53;;;0.51;100.00
55217;BME280;41086;46.736;15.666;2022-12-07T01:33:34;98232.56;;;0.33;100.00
55217;BME280;41086;46.736;15.666;2022-12-07T01:38:51;98231.63;;;0.36;100.00
55217;BME280;41086;46.736;15.666;2022-12-07T01:41:20;98235.81;;;0.40;100.00
55217;BME280;41086;46.736;15.666;2022-12-07T01:46:32;98244.59;;;0.37;100.00
55217;BME280;41086;46.736;15.666;2022-12-07T01:48:59;98242.59;;;0.46;100.00
55217;BME280;41086;46.736;15.666;2022-12-07T01:51:27;98238.16;;;0.49;100.00
55217;BME280;41086;46.736;15.666;2022-12-07T01:53:54;98232.94;;;0.49;100.00
55217;BME280;41086;46.736;15.666;2022-12-07T01:56:25;98223.56;;;0.43;100.00
55217;BME280;41086;46.736;15.666;2022-12-07T01:58:54;98229.63;;;0.44;100.00
55217;BME280;41086;46.736;15.666;2022-12-07T02:01:22;98226.22;;;0.42;100.00
55217;BME280;41086;46.736;15.666;2022-12-07T02:03:49;98217.63;;;0.38;100.00
55217;BME280;41086;46.736;15.666;2022-12-07T02:06:19;98219.44;;;0.36;100.00
55217;BME280;41086;46.736;15.666;2022-12-07T02:08:47;98227.50;;;0.29;100.00
55217;BME280;41086;46.736;15.666;2022-12-07T02:11:15;98221.28;;;0.33;100.00
55217;BME280;41086;46.736;15.666;2022-12-07T02:13:43;98212.53;;;0.35;100.00
55217;BME280;41086;46.736;15.666;2022-12-07T02:21:36;98208.44;;;0.27;100.00
55217;BME280;41086;46.736;15.666;2022-12-07T02:29:35;98212.16;;;0.19;100.00
55217;BME280;41086;46.736;15.666;2022-12-07T02:32:55;98219.19;;;0.16;100.00
55217;BME280;41086;46.736;15.666;2022-12-07T02:35:03;98217.53;;;0.13;100.00
55217;BME280;41086;46.736;15.666;2022-12-07T02:37:39;98215.81;;;0.14;100.00
55217;BME280;41086;46.736;15.666;2022-12-07T02:40:10;98201.97;;;0.12;100.00
55217;BME280;41086;46.736;15.666;2022-12-07T02:42:51;98194.88;;;0.15;100.00
55217;BME280;41086;46.736;15.666;2022-12-07T02:45:21;98197.69;;;0.09;100.00
55217;BME280;41086;46.736;15.666;2022-12-07T02:47:51;98193.22;;;0.13;100.00
55217;BME280;41086;46.736;15.666;2022-12-07T02:50:20;98190.69;;;0.11;100.00
55217;BME280;41086;46.736;15.666;2022-12-07T02:52:47;98196.97;;;0.04;100.00
55217;BME280;41086;46.736;15.666;2022-12-07T02:55:16;98192.69;;;0.03;100.00
55217;BME280;41086;46.736;15.666;2022-12-07T02:58:14;98186.22;;;-0.13;100.00
55217;BME280;41086;46.736;15.666;2022-12-07T03:03:39;98195.00;;;-0.16;100.00
55217;BME280;41086;46.736;15.666;2022-12-07T03:06:28;98195.94;;;-0.18;100.00
55217;BME280;41086;46.736;15.666;2022-12-07T03:09:14;98190.44;;;-0.09;100.00
55217;BME280;41086;46.736;15.666;2022-12-07T03:12:09;98185.34;;;-0.14;100.00
55217;BME280;41086;46.736;15.666;2022-12-07T03:15:01;98181.91;;;-0.14;100.00
55217;BME280;41086;46.736;15.666;2022-12-07T03:17:31;98176.56;;;-0.10;100.00
55217;BME280;41086;46.736;15.666;2022-12-07T03:20:04;98164.28;;;-0.06;100.00
55217;BME280;41086;46.736;15.666;2022-12-07T03:22:34;98183.38;;;-0.06;100.00
55217;BME280;41086;46.736;15.666;2022-12-07T03:25:06;98180.31;;;-0.18;100.00
55217;BME280;41086;46.736;15.666;2022-12-07T03:27:42;98171.88;;;-0.27;100.00
55217;BME280;41086;46.736;15.666;2022-12-07T03:30:19;98178.78;;;-0.26;100.00
55217;BME280;41086;46.736;15.666;2022-12-07T03:33:01;98177.31;;;-0.34;100.00
55217;BME280;41086;46.736;15.666;2022-12-07T03:35:37;98173.56;;;-0.26;100.00
55217;BME280;41086;46.736;15.666;2022-12-07T03:41:09;98177.19;;;-0.30;100.00
55217;BME280;41086;46.736;15.666;2022-12-07T03:43:40;98175.63;;;-0.37;100.00
55217;BME280;41086;46.736;15.666;2022-12-07T03:46:42;98167.97;;;-0.41;100.00
55217;BME280;41086;46.736;15.666;2022-12-07T03:49:22;98174.19;;;-0.47;100.00
55217;BME280;41086;46.736;15.666;2022-12-07T03:51:56;98177.06;;;-0.56;100.00
55217;BME280;41086;46.736;15.666;2022-12-07T03:54:34;98177.81;;;-0.51;100.00
55217;BME280;41086;46.736;15.666;2022-12-07T03:57:04;98162.13;;;-0.50;100.00
55217;BME280;41086;46.736;15.666;2022-12-07T03:59:32;98140.16;;;-0.71;100.00
55217;BME280;41086;46.736;15.666;2022-12-07T04:02:04;98167.22;;;-0.47;100.00
55217;BME280;41086;46.736;15.666;2022-12-07T04:04:32;98171.66;;;-0.49;100.00
55217;BME280;41086;46.736;15.666;2022-12-07T04:06:59;98162.81;;;-0.43;100.00
55217;BME280;41086;46.736;15.666;2022-12-07T04:09:27;98164.41;;;-0.39;100.00
55217;BME280;41086;46.736;15.666;2022-12-07T04:11:54;98159.47;;;-0.48;100.00
55217;BME280;41086;46.736;15.666;2022-12-07T04:14:21;98153.44;;;-0.49;100.00
55217;BME280;41086;46.736;15.666;2022-12-07T04:19:17;98168.66;;;-0.35;100.00
55217;BME280;41086;46.736;15.666;2022-12-07T04:21:44;98162.56;;;-0.35;100.00
55217;BME280;41086;46.736;15.666;2022-12-07T04:24:12;98166.06;;;-0.36;100.00
55217;BME280;41086;46.736;15.666;2022-12-07T04:26:41;98164.22;;;-0.33;100.00
55217;BME280;41086;46.736;15.666;2022-12-07T04:29:09;98167.81;;;-0.37;100.00
55217;BME280;41086;46.736;15.666;2022-12-07T04:31:36;98174.06;;;-0.42;100.00
55217;BME280;41086;46.736;15.666;2022-12-07T04:34:04;98171.56;;;-0.46;100.00
55217;BME280;41086;46.736;15.666;2022-12-07T04:36:31;98174.59;;;-0.61;100.00
55217;BME280;41086;46.736;15.666;2022-12-07T04:38:58;98183.47;;;-0.68;100.00
55217;BME280;41086;46.736;15.666;2022-12-07T04:41:25;98173.94;;;-0.68;100.00
55217;BME280;41086;46.736;15.666;2022-12-07T04:44:03;98174.25;;;-0.80;100.00
55217;BME280;41086;46.736;15.666;2022-12-07T04:46:31;98161.16;;;-0.77;100.00
55217;BME280;41086;46.736;15.666;2022-12-07T04:48:58;98171.63;;;-0.78;100.00
55217;BME280;41086;46.736;15.666;2022-12-07T04:51:28;98172.69;;;-0.85;100.00
55217;BME280;41086;46.736;15.666;2022-12-07T04:53:56;98173.81;;;-0.96;100.00
55217;BME280;41086;46.736;15.666;2022-12-07T04:56:23;98167.75;;;-0.95;100.00
55217;BME280;41086;46.736;15.666;2022-12-07T04:58:52;98165.06;;;-0.92;100.00
55217;BME280;41086;46.736;15.666;2022-12-07T05:01:19;98172.94;;;-0.95;100.00
55217;BME280;41086;46.736;15.666;2022-12-07T05:03:47;98176.56;;;-1.00;100.00
55217;BME280;41086;46.736;15.666;2022-12-07T05:06:14;98160.25;;;-1.07;100.00
55217;BME280;41086;46.736;15.666;2022-12-07T05:08:43;98181.72;;;-0.99;100.00
55217;BME280;41086;46.736;15.666;2022-12-07T05:11:10;98183.28;;;-0.92;100.00
55217;BME280;41086;46.736;15.666;2022-12-07T05:13:57;98189.03;;;-0.80;100.00
55217;BME280;41086;46.736;15.666;2022-12-07T05:16:24;98177.88;;;-0.84;100.00
55217;BME280;41086;46.736;15.666;2022-12-07T05:18:51;98185.50;;;-0.78;100.00
55217;BME280;41086;46.736;15.666;2022-12-07T05:21:18;98189.75;;;-0.75;100.00
55217;BME280;41086;46.736;15.666;2022-12-07T05:23:45;98190.63;;;-0.76;100.00
55217;BME280;41086;46.736;15.666;2022-12-07T05:26:12;98166.50;;;-0.81;100.00
55217;BME280;41086;46.736;15.666;2022-12-07T05:28:38;98187.19;;;-0.77;100.00
55217;BME280;41086;46.736;15.666;2022-12-07T05:31:05;98163.28;;;-0.90;100.00
55217;BME280;41086;46.736;15.666;2022-12-07T05:33:32;98181.41;;;-0.86;100.00
55217;BME280;41086;46.736;15.666;2022-12-07T05:35:59;98179.81;;;-0.92;100.00
55217;BME280;41086;46.736;15.666;2022-12-07T05:38:32;98180.53;;;-0.87;100.00
55217;BME280;41086;46.736;15.666;2022-12-07T05:41:04;98182.47;;;-0.95;100.00
55217;BME280;41086;46.736;15.666;2022-12-07T05:43:31;98176.50;;;-0.97;100.00
55217;BME280;41086;46.736;15.666;2022-12-07T05:45:59;98161.94;;;-1.06;100.00
55217;BME280;41086;46.736;15.666;2022-12-07T05:48:26;98184.28;;;-0.97;100.00
55217;BME280;41086;46.736;15.666;2022-12-07T05:50:53;98184.31;;;-0.99;100.00
55217;BME280;41086;46.736;15.666;2022-12-07T05:53:20;98177.38;;;-0.98;100.00
55217;BME280;41086;46.736;15.666;2022-12-07T05:55:48;98198.34;;;-1.04;100.00
55217;BME280;41086;46.736;15.666;2022-12-07T05:58:15;98190.91;;;-1.18;100.00
55217;BME280;41086;46.736;15.666;2022-12-07T06:01:01;98161.03;;;-1.36;100.00
55217;BME280;41086;46.736;15.666;2022-12-07T06:03:28;98203.06;;;-1.19;100.00
55217;BME280;41086;46.736;15.666;2022-12-07T06:05:55;98196.13;;;-1.20;100.00
55217;BME280;41086;46.736;15.666;2022-12-07T06:08:22;98198.69;;;-1.18;100.00
55217;BME280;41086;46.736;15.666;2022-12-07T06:10:49;98201.22;;;-1.15;100.00
55217;BME280;41086;46.736;15.666;2022-12-07T06:13:36;98203.78;;;-1.14;100.00
55217;BME280;41086;46.736;15.666;2022-12-07T06:16:10;98207.41;;;-1.19;100.00
55217;BME280;41086;46.736;15.666;2022-12-07T06:18:37;98208.19;;;-1.17;100.00
55217;BME280;41086;46.736;15.666;2022-12-07T06:21:04;98218.59;;;-1.17;100.00
55217;BME280;41086;46.736;15.666;2022-12-07T06:23:31;98214.13;;;-1.12;100.00
55217;BME280;41086;46.736;15.666;2022-12-07T06:25:58;98222.75;;;-1.08;100.00
55217;BME280;41086;46.736;15.666;2022-12-07T06:28:24;98226.13;;;-1.06;100.00
55217;BME280;41086;46.736;15.666;2022-12-07T06:31:01;98216.63;;;-1.07;100.00
55217;BME280;41086;46.736;15.666;2022-12-07T06:33:28;98224.44;;;-1.07;100.00
55217;BME280;41086;46.736;15.666;2022-12-07T06:35:55;98218.31;;;-1.05;100.00
55217;BME280;41086;46.736;15.666;2022-12-07T06:38:22;98208.00;;;-1.09;100.00
55217;BME280;41086;46.736;15.666;2022-12-07T06:40:49;98214.06;;;-1.09;100.00
55217;BME280;41086;46.736;15.666;2022-12-07T06:43:16;98214.34;;;-1.20;100.00
55217;BME280;41086;46.736;15.666;2022-12-07T06:45:42;98223.81;;;-1.17;100.00
55217;BME280;41086;46.736;15.666;2022-12-07T06:48:09;98230.00;;;-1.21;100.00
55217;BME280;41086;46.736;15.666;2022-12-07T06:50:36;98201.09;;;-1.43;100.00
55217;BME280;41086;46.736;15.666;2022-12-07T06:53:03;98222.53;;;-1.35;100.00
55217;BME280;41086;46.736;15.666;2022-12-07T06:55:30;98229.44;;;-1.34;100.00
55217;BME280;41086;46.736;15.666;2022-12-07T06:57:56;98222.53;;;-1.35;100.00
55217;BME280;41086;46.736;15.666;2022-12-07T07:00:24;98225.09;;;-1.34;100.00
55217;BME280;41086;46.736;15.666;2022-12-07T07:02:51;98235.47;;;-1.34;100.00
55217;BME280;41086;46.736;15.666;2022-12-07T07:05:18;98234.63;;;-1.32;100.00
55217;BME280;41086;46.736;15.666;2022-12-07T07:07:44;98236.06;;;-1.22;100.00
55217;BME280;41086;46.736;15.666;2022-12-07T07:10:31;98225.56;;;-1.18;100.00
55217;BME280;41086;46.736;15.666;2022-12-07T07:12:58;98224.59;;;-1.14;100.00
55217;BME280;41086;46.736;15.666;2022-12-07T07:15:25;98236.53;;;-1.06;100.00
55217;BME280;41086;46.736;15.666;2022-12-07T07:17:51;98244.47;;;-1.11;100.00
55217;BME280;41086;46.736;15.666;2022-12-07T07:20:18;98241.16;;;-1.18;100.00
55217;BME280;41086;46.736;15.666;2022-12-07T07:22:46;98244.78;;;-1.23;100.00
55217;BME280;41086;46.736;15.666;2022-12-07T07:25:12;98253.25;;;-1.15;100.00
55217;BME280;41086;46.736;15.666;2022-12-07T07:27:39;98247.22;;;-1.17;100.00
55217;BME280;41086;46.736;15.666;2022-12-07T07:30:07;98253.41;;;-1.21;100.00
55217;BME280;41086;46.736;15.666;2022-12-07T07:32:34;98253.75;;;-1.37;100.00
55217;BME280;41086;46.736;15.666;2022-12-07T07:35:00;98254.03;;;-1.47;100.00
55217;BME280;41086;46.736;15.666;2022-12-07T07:37:27;98252.75;;;-1.31;100.00
55217;BME280;41086;46.736;15.666;2022-12-07T07:39:55;98256.00;;;-1.21;100.00
55217;BME280;41086;46.736;15.666;2022-12-07T07:42:22;98231.81;;;-1.25;100.00
55217;BME280;41086;46.736;15.666;2022-12-07T07:44:48;98240.22;;;-1.15;100.00
55217;BME280;41086;46.736;15.666;2022-12-07T07:47:15;98259.91;;;-1.05;100.00
55217;BME280;41086;46.736;15.666;2022-12-07T07:49:42;98262.63;;;-1.09;100.00
55217;BME280;41086;46.736;15.666;2022-12-07T07:52:13;98263.81;;;-1.21;100.00
55217;BME280;41086;46.736;15.666;2022-12-07T07:54:40;98256.28;;;-1.34;100.00
55217;BME280;41086;46.736;15.666;2022-12-07T07:57:07;98264.75;;;-1.25;100.00
55217;BME280;41086;46.736;15.666;2022-12-07T07:59:34;98260.97;;;-1.48;100.00
55217;BME280;41086;46.736;15.666;2022-12-07T08:02:00;98267.16;;;-1.52;100.00
55217;BME280;41086;46.736;15.666;2022-12-07T08:04:27;98278.22;;;-1.44;100.00
55217;BME280;41086;46.736;15.666;2022-12-07T08:06:54;98261.81;;;-1.47;100.00
55217;BME280;41086;46.736;15.666;2022-12-07T08:09:21;98271.13;;;-1.39;100.00
55217;BME280;41086;46.736;15.666;2022-12-07T08:11:48;98271.03;;;-1.34;100.00
55217;BME280;41086;46.736;15.666;2022-12-07T08:14:14;98262.31;;;-1.31;100.00
55217;BME280;41086;46.736;15.666;2022-12-07T08:16:41;98265.88;;;-1.36;100.00
55217;BME280;41086;46.736;15.666;2022-12-07T08:19:08;98271.00;;;-1.32;100.00
55217;BME280;41086;46.736;15.666;2022-12-07T08:21:35;98264.94;;;-1.33;100.00
55217;BME280;41086;46.736;15.666;2022-12-07T08:24:01;98272.41;;;-1.19;100.00
55217;BME280;41086;46.736;15.666;2022-12-07T08:26:28;98275.63;;;-1.09;100.00
55217;BME280;41086;46.736;15.666;2022-12-07T08:28:55;98267.09;;;-1.15;100.00
55217;BME280;41086;46.736;15.666;2022-12-07T08:31:22;98274.78;;;-1.10;100.00
55217;BME280;41086;46.736;15.666;2022-12-07T08:33:49;98275.97;;;-1.23;100.00
55217;BME280;41086;46.736;15.666;2022-12-07T08:36:16;98275.16;;;-1.25;100.00
55217;BME280;41086;46.736;15.666;2022-12-07T08:38:43;98266.81;;;-1.38;100.00
55217;BME280;41086;46.736;15.666;2022-12-07T08:41:30;98271.09;;;-1.36;100.00
55217;BME280;41086;46.736;15.666;2022-12-07T08:43:57;98278.72;;;-1.29;100.00
55217;BME280;41086;46.736;15.666;2022-12-07T08:49:11;98275.06;;;-1.22;100.00
55217;BME280;41086;46.736;15.666;2022-12-07T08:51:39;98263.34;;;-1.39;100.00
55217;BME280;41086;46.736;15.666;2022-12-07T08:54:11;98255.25;;;-1.26;100.00
55217;BME280;41086;46.736;15.666;2022-12-07T08:56:41;98280.31;;;-1.24;100.00
55217;BME280;41086;46.736;15.666;2022-12-07T08:59:08;98290.31;;;-1.07;100.00
55217;BME280;41086;46.736;15.666;2022-12-07T09:01:35;98293.72;;;-1.05;100.00
55217;BME280;41086;46.736;15.666;2022-12-07T09:04:02;98296.91;;;-0.94;100.00
55217;BME280;41086;46.736;15.666;2022-12-07T09:06:29;98288.09;;;-0.88;100.00
55217;BME280;41086;46.736;15.666;2022-12-07T09:08:58;98300.72;;;-0.73;100.00
55217;BME280;41086;46.736;15.666;2022-12-07T09:11:26;98300.53;;;-0.65;100.00
55217;BME280;41086;46.736;15.666;2022-12-07T09:13:55;98292.91;;;-0.73;100.00
55217;BME280;41086;46.736;15.666;2022-12-07T09:16:22;98302.53;;;-0.76;100.00
55217;BME280;41086;46.736;15.666;2022-12-07T09:18:49;98299.50;;;-0.92;100.00
55217;BME280;41086;46.736;15.666;2022-12-07T09:21:15;98308.22;;;-0.95;100.00
55217;BME280;41086;46.736;15.666;2022-12-07T09:23:42;98283.50;;;-1.11;100.00
55217;BME280;41086;46.736;15.666;2022-12-07T09:26:09;98300.41;;;-0.95;100.00
55217;BME280;41086;46.736;15.666;2022-12-07T09:28:36;98301.28;;;-0.96;100.00
55217;BME280;41086;46.736;15.666;2022-12-07T09:31:04;98292.63;;;-0.96;100.00
55217;BME280;41086;46.736;15.666;2022-12-07T09:33:54;98286.47;;;-0.92;100.00
55217;BME280;41086;46.736;15.666;2022-12-07T09:36:22;98291.53;;;-0.86;100.00
55217;BME280;41086;46.736;15.666;2022-12-07T09:38:48;98282.81;;;-0.85;100.00
55217;BME280;41086;46.736;15.666;2022-12-07T09:41:15;98263.00;;;-0.91;100.00
55217;BME280;41086;46.736;15.666;2022-12-07T09:43:42;98278.72;;;-0.95;100.00
55217;BME280;41086;46.736;15.666;2022-12-07T09:46:13;98283.16;;;-0.99;100.00
55217;BME280;41086;46.736;15.666;2022-12-07T09:48:42;98268.53;;;-1.03;100.00
55217;BME280;41086;46.736;15.666;2022-12-07T09:51:18;98281.06;;;-0.84;100.00
55217;BME280;41086;46.736;15.666;2022-12-07T09:53:51;98277.38;;;-0.76;100.00
55217;BME280;41086;46.736;15.666;2022-12-07T09:56:19;98273.78;;;-0.72;100.00
55217;BME280;41086;46.736;15.666;2022-12-07T09:58:47;98270.63;;;-0.83;100.00
55217;BME280;41086;46.736;15.666;2022-12-07T10:01:19;98270.53;;;-0.80;100.00
55217;BME280;41086;46.736;15.666;2022-12-07T10:03:52;98255.53;;;-0.70;100.00
55217;BME280;41086;46.736;15.666;2022-12-07T10:06:19;98264.59;;;-0.52;100.00
55217;BME280;41086;46.736;15.666;2022-12-07T10:08:47;98258.16;;;-0.39;100.00
55217;BME280;41086;46.736;15.666;2022-12-07T10:11:14;98246.31;;;-0.19;100.00
55217;BME280;41086;46.736;15.666;2022-12-07T10:13:48;98256.19;;;-0.01;100.00
55217;BME280;41086;46.736;15.666;2022-12-07T10:18:52;98248.59;;;-0.09;100.00
55217;BME280;41086;46.736;15.666;2022-12-07T10:21:24;98270.47;;;-0.14;100.00
55217;BME280;41086;46.736;15.666;2022-12-07T10:29:19;98266.16;;;-0.15;100.00
55217;BME280;41086;46.736;15.666;2022-12-07T10:31:55;98246.28;;;0.10;100.00
55217;BME280;41086;46.736;15.666;2022-12-07T10:34:24;98262.53;;;0.20;100.00
55217;BME280;41086;46.736;15.666;2022-12-07T10:36:53;98261.56;;;0.22;100.00
55217;BME280;41086;46.736;15.666;2022-12-07T10:39:22;98253.44;;;0.33;100.00
55217;BME280;41086;46.736;15.666;2022-12-07T10:42:01;98253.88;;;0.46;100.00
55217;BME280;41086;46.736;15.666;2022-12-07T10:44:33;98265.00;;;0.51;100.00
55217;BME280;41086;46.736;15.666;2022-12-07T10:55:38;98260.66;;;0.24;100.00
55217;BME280;41086;46.736;15.666;2022-12-07T11:00:58;98260.75;;;0.49;100.00
55217;BME280;41086;46.736;15.666;2022-12-07T11:03:46;98262.28;;;0.56;100.00
55217;BME280;41086;46.736;15.666;2022-12-07T11:09:30;98268.69;;;0.72;100.00
55217;BME280;41086;46.736;15.666;2022-12-07T11:15:18;98266.03;;;1.00;100.00
55217;BME280;41086;46.736;15.666;2022-12-07T11:34:02;98284.16;;;1.05;100.00
55217;BME280;41086;46.736;15.666;2022-12-07T11:36:44;98264.56;;;1.18;100.00
55217;BME280;41086;46.736;15.666;2022-12-07T11:41:48;98267.13;;;1.45;100.00
55217;BME280;41086;46.736;15.666;2022-12-07T11:44:33;98288.31;;;1.36;100.00
55217;BME280;41086;46.736;15.666;2022-12-07T11:47:06;98268.41;;;1.33;100.00
55217;BME280;41086;46.736;15.666;2022-12-07T11:55:21;98277.63;;;1.68;100.00
55217;BME280;41086;46.736;15.666;2022-12-07T11:57:58;98283.19;;;1.83;100.00
55217;BME280;41086;46.736;15.666;2022-12-07T12:00:29;98283.78;;;1.91;100.00
55217;BME280;41086;46.736;15.666;2022-12-07T12:03:25;98291.16;;;1.54;100.00
55217;BME280;41086;46.736;15.666;2022-12-07T12:05:56;98281.84;;;1.47;100.00
55217;BME280;41086;46.736;15.666;2022-12-07T12:08:30;98281.03;;;1.45;100.00
55217;BME280;41086;46.736;15.666;2022-12-07T12:14:25;98285.34;;;1.46;100.00
55217;BME280;41086;46.736;15.666;2022-12-07T12:22:37;98268.50;;;1.30;100.00
55217;BME280;41086;46.736;15.666;2022-12-07T12:25:13;98248.66;;;1.26;100.00
55217;BME280;41086;46.736;15.666;2022-12-07T12:27:44;98254.13;;;1.18;100.00
55217;BME280;41086;46.736;15.666;2022-12-07T12:30:39;98263.56;;;1.22;100.00
55217;BME280;41086;46.736;15.666;2022-12-07T12:33:13;98257.88;;;1.36;100.00
55217;BME280;41086;46.736;15.666;2022-12-07T12:35:41;98256.63;;;1.46;100.00
55217;BME280;41086;46.736;15.666;2022-12-07T12:38:32;98262.03;;;1.42;100.00
55217;BME280;41086;46.736;15.666;2022-12-07T12:41:02;98260.25;;;1.42;100.00
55217;BME280;41086;46.736;15.666;2022-12-07T12:43:49;98243.34;;;1.52;100.00
55217;BME280;41086;46.736;15.666;2022-12-07T12:52:47;98241.59;;;1.53;100.00
55217;BME280;41086;46.736;15.666;2022-12-07T12:57:31;98242.50;;;1.75;100.00
55217;BME280;41086;46.736;15.666;2022-12-07T13:00:00;98251.84;;;1.83;100.00
55217;BME280;41086;46.736;15.666;2022-12-07T13:15:53;98244.31;;;1.73;100.00
55217;BME280;41086;46.736;15.666;2022-12-07T13:31:44;98207.19;;;1.17;100.00
55217;BME280;41086;46.736;15.666;2022-12-07T13:39:45;98211.91;;;1.55;100.00
55217;BME280;41086;46.736;15.666;2022-12-07T13:42:26;98219.47;;;1.63;100.00
55217;BME280;41086;46.736;15.666;2022-12-07T13:44:55;98222.81;;;1.67;100.00
55217;BME280;41086;46.736;15.666;2022-12-07T13:47:36;98213.44;;;1.61;100.00
55217;BME280;41086;46.736;15.666;2022-12-07T13:52:55;98234.06;;;1.69;100.00
55217;BME280;41086;46.736;15.666;2022-12-07T13:55:22;98235.88;;;1.67;100.00
55217;BME280;41086;46.736;15.666;2022-12-07T13:57:51;98228.00;;;1.68;100.00
55217;BME280;41086;46.736;15.666;2022-12-07T14:00:24;98235.88;;;1.67;100.00
55217;BME280;41086;46.736;15.666;2022-12-07T14:05:40;98229.91;;;1.63;100.00
55217;BME280;41086;46.736;15.666;2022-12-07T14:10:55;98236.69;;;1.44;100.00
55217;BME280;41086;46.736;15.666;2022-12-07T14:13:32;98228.06;;;1.42;100.00
55217;BME280;41086;46.736;15.666;2022-12-07T14:16:22;98222.75;;;1.45;100.00
55217;BME280;41086;46.736;15.666;2022-12-07T14:18:51;98231.94;;;1.30;100.00
55217;BME280;41086;46.736;15.666;2022-12-07T14:21:23;98230.94;;;1.34;100.00
55217;BME280;41086;46.736;15.666;2022-12-07T14:26:50;98233.09;;;1.23;100.00
55217;BME280;41086;46.736;15.666;2022-12-07T14:31:54;98244.41;;;1.22;100.00
55217;BME280;41086;46.736;15.666;2022-12-07T14:34:21;98244.41;;;1.22;100.00
55217;BME280;41086;46.736;15.666;2022-12-07T14:36:48;98247.00;;;1.23;100.00
55217;BME280;41086;46.736;15.666;2022-12-07T14:39:15;98246.50;;;1.12;100.00
55217;BME280;41086;46.736;15.666;2022-12-07T14:41:42;98238.72;;;1.10;100.00
55217;BME280;41086;46.736;15.666;2022-12-07T14:44:19;98235.38;;;1.07;100.00
55217;BME280;41086;46.736;15.666;2022-12-07T14:46:50;98228.47;;;1.06;100.00
55217;BME280;41086;46.736;15.666;2022-12-07T14:49:37;98237.66;;;1.16;100.00
55217;BME280;41086;46.736;15.666;2022-12-07T14:52:05;98243.34;;;1.02;100.00
55217;BME280;41086;46.736;15.666;2022-12-07T14:54:53;98243.50;;;0.98;100.00
55217;BME280;41086;46.736;15.666;2022-12-07T14:57:19;98237.38;;;0.99;100.00
55217;BME280;41086;46.736;15.666;2022-12-07T14:59:46;98231.47;;;0.94;100.00
55217;BME280;41086;46.736;15.666;2022-12-07T15:02:14;98233.22;;;0.93;100.00
55217;BME280;41086;46.736;15.666;2022-12-07T15:04:41;98231.22;;;1.01;100.00
55217;BME280;41086;46.736;15.666;2022-12-07T15:07:19;98227.00;;;0.97;100.00
55217;BME280;41086;46.736;15.666;2022-12-07T15:09:47;98243.47;;;0.99;100.00
55217;BME280;41086;46.736;15.666;2022-12-07T15:12:14;98239.91;;;1.02;100.00
55217;BME280;41086;46.736;15.666;2022-12-07T15:14:41;98241.44;;;1.07;100.00
55217;BME280;41086;46.736;15.666;2022-12-07T15:17:10;98244.00;;;1.09;100.00
55217;BME280;41086;46.736;15.666;2022-12-07T15:19:51;98244.84;;;1.09;100.00
55217;BME280;41086;46.736;15.666;2022-12-07T15:22:18;98248.31;;;1.10;100.00
55217;BME280;41086;46.736;15.666;2022-12-07T15:24:45;98249.34;;;1.06;100.00
55217;BME280;41086;46.736;15.666;2022-12-07T15:27:11;98251.94;;;1.06;100.00